메인 페이지
METAR-TAF:

METAR-TAF

공항 :

제네바, 스위스

제네바 국제공항

위도: 46-15N, 경도: 006-08E, 고도: 420m

현재 날씨관측

예보는 28분 전, 05:20시(UTC)에 발표되었습니다.
여러 방향의 바람 1kt
온도 2°C
습도 87%
기압 1012 hPa
시정 10km 이상
고도 2000ft 상공 구름 많음
고도 6000ft 상공 구름 많음

METAR: LSGG 200520Z VRB01KT 9999 BKN020 BKN060 02/00 Q1012 NOSIG

시각: 06:48 (05:48 UTC)

예보

예보는 23분 전, 05:25시(UTC)에 발표되었습니다.
예보 대상 시간: 20일 06시부터 21일 12시까지 (UTC)
여러 방향의 바람 3kt
시정 10km 이상
고도 2000ft 상공 구름 보통
고도 6000ft 상공 구름 많음
전환 중
20일 06시부터 20일 09시까지 (UTC)
북동10kt
전환 중
20일 18시부터 20일 21시까지 (UTC)
북동15kt, 순간 최대 풍속 25kt
확률 40% :
일시적
21일 06시부터 21일 12시까지 (UTC)
북동25kt, 순간 최대 풍속 35kt

TAF: LSGG 200525Z 2006/2112 VRB03KT 9999 SCT020 BKN060 TX04/2014Z TN01/2006Z TNM01/2106Z BECMG 2006/2009 05010KT BECMG 2018/2021 05015G25KT PROB40 TEMPO 2106/2112 05025G35KT

4,000개 이상의 공항 관측 자료 및 예보 (METAR 및 TAF 보고).

지도상에서 검색 가능한 기상관측소가 노란 점과 빨간 점으로 표시되어 있습니다.

기상관측소 명을 보려면 표시 위로 마우스를 이동하세요.

날씨 관측과 예보를 보려면 클릭하세요.

지도 변경 : 확대하려면 엑스 표시가 있는 녹색 버튼, 축소하려면 빼기 표시가 있는 녹색 버튼, 다음 페이지의 지도를 보려면 녹색 화살표를 클릭하세요.


METAR-TAF: